createdAt,value
2019-02-26T00:01:18.666Z,8.20
2019-02-26T00:03:46.920Z,8.20
2019-02-26T00:06:16.770Z,8.20
2019-02-26T00:08:49.206Z,8.10
2019-02-26T00:11:16.280Z,8.10
2019-02-26T00:13:44.986Z,8.00
2019-02-26T00:16:15.407Z,8.00
2019-02-26T00:18:43.791Z,7.90
2019-02-26T00:21:12.236Z,7.90
2019-02-26T00:23:42.040Z,7.90
2019-02-26T00:26:12.732Z,7.80
2019-02-26T00:28:42.023Z,7.80
2019-02-26T00:31:11.797Z,7.70
2019-02-26T00:33:40.212Z,7.70
2019-02-26T00:36:09.482Z,7.60
2019-02-26T00:38:40.013Z,7.60
2019-02-26T00:41:08.926Z,7.60
2019-02-26T00:43:37.366Z,7.50
2019-02-26T00:46:07.902Z,7.50
2019-02-26T00:48:36.747Z,7.50
2019-02-26T00:51:06.050Z,7.50
2019-02-26T00:53:34.435Z,7.40
2019-02-26T00:56:03.839Z,7.30
2019-02-26T00:58:37.062Z,7.30
2019-02-26T01:01:08.214Z,7.30
2019-02-26T01:03:34.506Z,7.30
2019-02-26T01:06:04.230Z,7.20
2019-02-26T01:08:33.416Z,7.20
2019-02-26T01:11:03.779Z,7.20
2019-02-26T01:13:32.280Z,7.10
2019-02-26T01:16:01.048Z,7.00
2019-02-26T01:18:29.461Z,6.90
2019-02-26T01:20:59.677Z,6.90
2019-02-26T01:23:28.947Z,6.80
2019-02-26T01:25:57.500Z,6.80
2019-02-26T01:28:27.063Z,6.80
2019-02-26T01:30:57.839Z,6.80
2019-02-26T01:33:27.826Z,6.70
2019-02-26T01:35:57.921Z,6.70
2019-02-26T01:38:26.456Z,6.70
2019-02-26T01:40:56.006Z,6.60
2019-02-26T01:43:24.558Z,6.60
2019-02-26T01:45:55.244Z,6.60
2019-02-26T01:48:23.459Z,6.60
2019-02-26T01:50:52.583Z,6.60
2019-02-26T01:53:23.666Z,6.50
2019-02-26T01:55:52.358Z,6.50
2019-02-26T01:58:20.825Z,6.50
2019-02-26T02:00:49.232Z,6.40
2019-02-26T02:03:18.954Z,6.30
2019-02-26T02:05:50.183Z,6.30
2019-02-26T02:08:20.237Z,6.30
2019-02-26T02:10:51.398Z,6.30
2019-02-26T02:13:18.418Z,6.30
2019-02-26T02:15:46.805Z,6.30
2019-02-26T02:18:15.222Z,6.30
2019-02-26T02:20:43.921Z,6.30
2019-02-26T02:23:12.306Z,6.20
2019-02-26T02:25:41.478Z,6.20
2019-02-26T02:28:10.860Z,6.20
2019-02-26T02:30:39.527Z,6.10
2019-02-26T02:33:08.212Z,6.10
2019-02-26T02:35:36.926Z,6.00
2019-02-26T02:38:05.392Z,6.00
2019-02-26T02:40:33.801Z,5.90
2019-02-26T02:43:04.409Z,5.90
2019-02-26T02:45:32.358Z,5.90
2019-02-26T02:48:03.295Z,5.90
2019-02-26T02:50:31.162Z,5.80
2019-02-26T02:53:02.218Z,5.80
2019-02-26T02:55:30.300Z,5.80
2019-02-26T02:58:00.492Z,5.80
2019-02-26T03:00:31.293Z,5.70
2019-02-26T03:02:59.471Z,5.70
2019-02-26T03:05:31.323Z,5.60
2019-02-26T03:07:58.014Z,5.60
2019-02-26T03:10:30.787Z,5.60
2019-02-26T03:12:57.795Z,5.60
2019-02-26T03:15:29.178Z,5.60
2019-02-26T03:17:57.101Z,5.50
2019-02-26T03:20:28.683Z,5.50
2019-02-26T03:22:55.904Z,5.50
2019-02-26T03:25:26.311Z,5.50
2019-02-26T03:27:54.468Z,5.50
2019-02-26T03:30:31.974Z,5.40
2019-02-26T03:32:58.527Z,5.40
2019-02-26T03:35:23.991Z,5.40
2019-02-26T03:37:55.649Z,5.40
2019-02-26T03:40:24.231Z,5.40
2019-02-26T03:42:52.985Z,5.30
2019-02-26T03:45:24.817Z,5.30
2019-02-26T03:47:51.496Z,5.30
2019-02-26T03:50:20.335Z,5.30
2019-02-26T03:52:48.876Z,5.30
2019-02-26T03:55:18.850Z,5.20
2019-02-26T03:57:50.608Z,5.30
2019-02-26T04:00:20.032Z,5.20
2019-02-26T04:02:51.233Z,5.20
2019-02-26T04:05:18.736Z,5.20
2019-02-26T04:07:49.845Z,5.20
2019-02-26T04:10:17.401Z,5.20
2019-02-26T04:12:48.728Z,5.10
2019-02-26T04:15:19.410Z,5.10
2019-02-26T04:17:47.798Z,5.10
2019-02-26T04:20:16.568Z,5.10
2019-02-26T04:22:48.884Z,5.10
2019-02-26T04:25:27.615Z,5.10
2019-02-26T04:28:02.662Z,5.10
2019-02-26T04:30:58.313Z,5.00
2019-02-26T04:33:55.906Z,5.00
2019-02-26T04:36:27.457Z,4.90
2019-02-26T04:39:22.671Z,4.90
2019-02-26T04:42:17.041Z,4.90
2019-02-26T04:44:58.883Z,4.80
2019-02-26T04:47:41.703Z,4.70
2019-02-26T04:50:10.118Z,4.50
2019-02-26T04:52:41.218Z,4.50
2019-02-26T04:55:09.306Z,4.50
2019-02-26T04:57:39.633Z,4.50
2019-02-26T05:00:10.568Z,4.50
2019-02-26T05:02:39.270Z,4.40
2019-02-26T05:05:08.752Z,4.50
2019-02-26T05:07:38.434Z,4.50
2019-02-26T05:10:08.131Z,4.40
2019-02-26T05:12:37.890Z,4.40
2019-02-26T05:15:11.549Z,4.40
2019-02-26T05:17:37.630Z,4.40
2019-02-26T05:20:09.630Z,4.30
2019-02-26T05:22:36.942Z,4.30
2019-02-26T05:25:10.824Z,4.30
2019-02-26T05:27:39.759Z,4.30
2019-02-26T05:30:09.747Z,4.20
2019-02-26T05:32:39.807Z,4.20
2019-02-26T05:35:08.271Z,4.10
2019-02-26T05:37:40.178Z,4.20
2019-02-26T05:40:10.437Z,4.20
2019-02-26T05:42:38.071Z,4.20
2019-02-26T05:45:09.401Z,4.20
2019-02-26T05:47:37.212Z,4.20
2019-02-26T05:50:12.925Z,4.20
2019-02-26T05:52:38.294Z,4.20
2019-02-26T05:55:07.654Z,4.20
2019-02-26T05:57:36.094Z,4.10
2019-02-26T06:00:08.463Z,4.20
2019-02-26T06:02:39.491Z,4.20
2019-02-26T06:05:08.630Z,4.10
2019-02-26T06:07:38.784Z,4.10
2019-02-26T06:10:07.571Z,4.10
2019-02-26T06:12:38.210Z,4.10
2019-02-26T06:15:08.101Z,4.10
2019-02-26T06:17:40.601Z,4.00
2019-02-26T06:20:12.813Z,4.00
2019-02-26T06:22:41.231Z,3.90
2019-02-26T06:25:17.735Z,3.90
2019-02-26T06:27:40.252Z,3.90
2019-02-26T06:30:12.312Z,3.80
2019-02-26T06:32:43.938Z,3.80
2019-02-26T06:35:16.091Z,3.80
2019-02-26T06:37:44.271Z,3.70
2019-02-26T06:40:14.626Z,3.70
2019-02-26T06:42:43.049Z,3.70
2019-02-26T06:45:13.968Z,3.70
2019-02-26T06:47:45.288Z,3.70
2019-02-26T06:50:15.826Z,3.80
2019-02-26T06:52:45.359Z,3.80
2019-02-26T06:55:13.939Z,3.80
2019-02-26T06:57:46.353Z,3.80
2019-02-26T07:00:16.794Z,3.90
2019-02-26T07:02:46.159Z,3.90
2019-02-26T07:05:15.391Z,3.90
2019-02-26T07:07:43.885Z,3.90
2019-02-26T07:10:18.542Z,4.00
2019-02-26T07:12:45.537Z,4.00
2019-02-26T07:15:15.939Z,4.00
2019-02-26T07:17:45.967Z,4.00
2019-02-26T07:20:14.568Z,4.10
2019-02-26T07:22:44.057Z,4.10
2019-02-26T07:25:15.821Z,4.20
2019-02-26T07:27:43.366Z,4.20
2019-02-26T07:30:12.461Z,4.20
2019-02-26T07:32:43.074Z,4.30
2019-02-26T07:35:13.571Z,4.40
2019-02-26T07:37:41.310Z,4.50
2019-02-26T07:40:15.669Z,4.60
2019-02-26T07:42:44.754Z,4.60
2019-02-26T07:45:15.235Z,4.70
2019-02-26T07:47:45.248Z,4.80
2019-02-26T07:50:14.724Z,4.90
2019-02-26T07:52:44.092Z,5.00
2019-02-26T07:55:16.829Z,5.10
2019-02-26T07:57:45.466Z,5.20
2019-02-26T08:00:19.322Z,5.30
2019-02-26T08:02:47.897Z,5.40
2019-02-26T08:05:18.735Z,5.40
2019-02-26T08:07:48.538Z,5.50
2019-02-26T08:10:19.572Z,5.60
2019-02-26T08:12:48.349Z,5.70
2019-02-26T08:15:17.050Z,5.80
2019-02-26T08:17:47.807Z,5.90
2019-02-26T08:20:15.736Z,6.00
2019-02-26T08:22:44.422Z,6.10
2019-02-26T08:25:14.010Z,6.20
2019-02-26T08:27:42.528Z,6.30
2019-02-26T08:30:14.755Z,6.40
2019-02-26T08:32:48.339Z,6.50
2019-02-26T08:35:18.086Z,6.60
2019-02-26T08:37:44.214Z,6.70
2019-02-26T08:40:13.965Z,6.80
2019-02-26T08:42:42.414Z,6.90
2019-02-26T08:45:15.142Z,7.10
2019-02-26T08:47:44.302Z,7.20
2019-02-26T08:50:14.830Z,7.30
2019-02-26T08:52:44.887Z,7.40
2019-02-26T08:55:19.136Z,7.50
2019-02-26T08:57:46.717Z,7.60
2019-02-26T09:00:21.818Z,7.70
2019-02-26T09:02:53.713Z,7.80
2019-02-26T09:05:20.429Z,7.90
2019-02-26T09:07:50.549Z,8.00
2019-02-26T09:10:22.666Z,8.10
2019-02-26T09:12:51.681Z,8.30
2019-02-26T09:15:20.134Z,8.40
2019-02-26T09:17:48.537Z,8.50
2019-02-26T09:20:18.387Z,8.60
2019-02-26T09:22:50.221Z,8.70
2019-02-26T09:25:17.116Z,8.90
2019-02-26T09:27:45.586Z,8.90
2019-02-26T09:30:19.312Z,9.00
2019-02-26T09:32:48.189Z,9.10
2019-02-26T09:35:23.995Z,9.30
2019-02-26T09:37:50.622Z,9.40
2019-02-26T09:40:23.697Z,9.50
2019-02-26T09:42:52.310Z,9.60
2019-02-26T09:45:28.745Z,9.80
2019-02-26T09:47:57.829Z,9.90
2019-02-26T09:50:25.839Z,10.00
2019-02-26T09:52:56.599Z,10.20
2019-02-26T09:55:24.408Z,10.30
2019-02-26T09:57:52.865Z,10.40
2019-02-26T10:00:26.079Z,10.60
2019-02-26T10:02:53.266Z,10.70
2019-02-26T10:05:21.754Z,10.80
2019-02-26T10:07:52.255Z,10.90
2019-02-26T10:10:21.662Z,11.10
2019-02-26T10:12:51.800Z,11.20
2019-02-26T10:15:20.571Z,11.30
2019-02-26T10:17:49.231Z,11.50
2019-02-26T10:20:26.233Z,11.60
2019-02-26T10:22:57.223Z,11.80
2019-02-26T10:25:26.397Z,11.90
2019-02-26T10:27:54.283Z,12.00
2019-02-26T10:30:22.982Z,12.10
2019-02-26T10:32:51.667Z,12.20
2019-02-26T10:35:32.597Z,12.30
2019-02-26T10:37:56.981Z,12.50
2019-02-26T10:40:34.663Z,12.60
2019-02-26T10:42:56.517Z,12.70
2019-02-26T10:45:30.022Z,12.90
2019-02-26T10:48:01.438Z,13.00
2019-02-26T10:50:31.801Z,13.20
2019-02-26T10:53:06.878Z,13.30
2019-02-26T10:55:35.205Z,13.40
2019-02-26T10:58:04.788Z,13.50
2019-02-26T11:00:34.113Z,13.60
2019-02-26T11:03:01.038Z,13.80
2019-02-26T11:05:29.445Z,13.80
2019-02-26T11:07:59.702Z,13.90
2019-02-26T11:10:28.019Z,14.00
2019-02-26T11:12:59.286Z,14.10
2019-02-26T11:15:29.441Z,14.30
2019-02-26T11:17:56.781Z,14.40
2019-02-26T11:20:27.703Z,14.50
2019-02-26T11:22:55.360Z,14.60
2019-02-26T11:25:24.808Z,14.70
2019-02-26T11:27:54.155Z,14.80
2019-02-26T11:30:27.225Z,15.10
2019-02-26T11:32:58.605Z,15.90
2019-02-26T11:35:27.249Z,16.90
2019-02-26T11:37:57.960Z,17.80
2019-02-26T11:40:28.230Z,19.10
2019-02-26T11:42:59.604Z,20.50
2019-02-26T11:45:27.635Z,21.80
2019-02-26T11:47:58.199Z,23.00
2019-02-26T11:50:28.033Z,23.60
2019-02-26T11:52:57.135Z,24.10
2019-02-26T11:55:26.930Z,24.60
2019-02-26T11:57:55.720Z,24.70
2019-02-26T12:00:47.318Z,25.60
2019-02-26T12:03:15.080Z,26.10
2019-02-26T12:05:43.487Z,26.60
2019-02-26T12:08:14.482Z,27.10
2019-02-26T12:10:42.598Z,27.10
2019-02-26T12:13:11.294Z,27.50
2019-02-26T12:15:42.692Z,28.00
2019-02-26T12:18:12.656Z,28.40
2019-02-26T12:20:42.678Z,28.60
2019-02-26T12:23:11.682Z,28.90
2019-02-26T12:25:41.115Z,29.20
2019-02-26T12:28:11.611Z,29.40
2019-02-26T12:30:43.329Z,29.00
2019-02-26T12:33:12.384Z,29.30
2019-02-26T12:35:41.620Z,29.20
2019-02-26T12:38:18.213Z,29.00
2019-02-26T12:40:44.118Z,29.30
2019-02-26T12:43:11.790Z,29.00
2019-02-26T12:45:41.157Z,29.60
2019-02-26T12:48:10.339Z,29.80
2019-02-26T12:50:40.336Z,29.50
2019-02-26T12:53:12.539Z,29.00
2019-02-26T12:55:42.296Z,29.30
2019-02-26T13:00:41.976Z,30.10
2019-02-26T13:05:42.553Z,30.20
2019-02-26T13:08:13.423Z,29.90
2019-02-26T13:10:43.496Z,30.00
2019-02-26T13:13:12.193Z,30.20
2019-02-26T13:15:40.630Z,30.70
2019-02-26T13:18:09.166Z,30.60
2019-02-26T13:20:37.581Z,31.20
2019-02-26T13:23:21.883Z,31.90
2019-02-26T13:25:36.142Z,32.50
2019-02-26T13:28:04.579Z,32.30
2019-02-26T13:30:33.002Z,32.50
2019-02-26T13:33:05.332Z,32.70
2019-02-26T13:35:31.921Z,33.00
2019-02-26T13:38:02.576Z,32.90
2019-02-26T13:40:38.197Z,32.90
2019-02-26T13:45:30.230Z,33.60
2019-02-26T13:48:01.301Z,33.30
2019-02-26T13:50:31.361Z,33.30
2019-02-26T13:52:59.852Z,33.80
2019-02-26T13:55:28.308Z,34.20
2019-02-26T13:57:56.714Z,34.30
2019-02-26T14:00:26.719Z,34.70
2019-02-26T14:02:55.587Z,34.80
2019-02-26T14:05:24.108Z,35.20
2019-02-26T14:07:52.879Z,35.30
2019-02-26T14:10:22.596Z,35.60
2019-02-26T14:12:51.394Z,35.90
2019-02-26T14:15:27.989Z,36.20
2019-02-26T14:17:56.407Z,36.40
2019-02-26T14:20:24.973Z,36.60
2019-02-26T14:22:53.900Z,36.70
2019-02-26T14:25:22.310Z,36.80
2019-02-26T14:27:50.732Z,37.00
2019-02-26T14:30:21.468Z,37.10
2019-02-26T14:32:49.874Z,36.80
2019-02-26T14:35:18.709Z,36.80
2019-02-26T14:37:47.206Z,37.00
2019-02-26T14:40:18.690Z,37.00
2019-02-26T14:42:47.116Z,37.10
2019-02-26T14:45:23.759Z,37.20
2019-02-26T14:47:52.657Z,37.30
2019-02-26T14:50:22.599Z,37.50
2019-02-26T14:52:51.270Z,37.30
2019-02-26T14:55:20.079Z,37.30
2019-02-26T14:57:48.483Z,37.40
2019-02-26T15:00:30.817Z,37.40
2019-02-26T15:02:59.324Z,37.40
2019-02-26T15:05:27.815Z,37.00
2019-02-26T15:07:56.247Z,36.90
2019-02-26T15:10:24.955Z,37.00
2019-02-26T15:12:53.731Z,36.90
2019-02-26T15:15:22.245Z,36.80
2019-02-26T15:17:50.742Z,37.00
2019-02-26T15:20:24.148Z,36.80
2019-02-26T15:22:52.549Z,37.00
2019-02-26T15:25:28.300Z,37.00
2019-02-26T15:28:04.742Z,36.80
2019-02-26T15:30:27.240Z,36.60
2019-02-26T15:32:55.672Z,35.90
2019-02-26T15:35:24.756Z,35.40
2019-02-26T15:37:53.227Z,35.20
2019-02-26T15:40:22.628Z,34.70
2019-02-26T15:42:53.021Z,34.50
2019-02-26T15:45:24.062Z,34.30
2019-02-26T15:47:52.868Z,34.10
2019-02-26T15:50:21.888Z,34.00
2019-02-26T15:52:52.715Z,33.90
2019-02-26T15:55:23.008Z,33.90
2019-02-26T15:57:51.723Z,33.90
2019-02-26T16:00:22.176Z,33.90
2019-02-26T16:02:51.723Z,33.80
2019-02-26T16:05:22.451Z,33.60
2019-02-26T16:07:51.134Z,33.60
2019-02-26T16:10:22.240Z,33.30
2019-02-26T16:12:50.285Z,33.20
2019-02-26T16:15:19.163Z,33.00
2019-02-26T16:17:47.590Z,32.80
2019-02-26T16:20:18.234Z,32.50
2019-02-26T16:22:47.224Z,32.20
2019-02-26T16:25:16.016Z,31.90
2019-02-26T16:27:44.439Z,31.40
2019-02-26T16:30:22.023Z,30.70
2019-02-26T16:32:50.462Z,29.80
2019-02-26T16:35:19.093Z,28.90
2019-02-26T16:37:47.832Z,28.10
2019-02-26T16:40:17.896Z,27.30
2019-02-26T16:42:47.447Z,26.50
2019-02-26T16:45:18.351Z,25.80
2019-02-26T16:47:48.707Z,25.10
2019-02-26T16:50:19.461Z,24.40
2019-02-26T16:52:48.180Z,23.90
2019-02-26T16:55:17.255Z,23.40
2019-02-26T16:57:46.503Z,22.90
2019-02-26T17:00:18.041Z,22.50
2019-02-26T17:02:46.570Z,22.10
2019-02-26T17:05:15.370Z,21.80
2019-02-26T17:07:43.772Z,21.50
2019-02-26T17:10:18.296Z,21.20
2019-02-26T17:12:48.424Z,20.90
2019-02-26T17:15:36.497Z,20.60
2019-02-26T17:18:09.313Z,20.40
2019-02-26T17:20:36.158Z,20.10
2019-02-26T17:23:05.026Z,19.90
2019-02-26T17:25:33.451Z,19.60
2019-02-26T17:28:02.221Z,19.40
2019-02-26T17:30:30.669Z,19.30
2019-02-26T17:32:59.096Z,19.00
2019-02-26T17:35:29.499Z,18.90
2019-02-26T17:37:58.246Z,18.70
2019-02-26T17:40:27.784Z,18.60
2019-02-26T17:42:56.488Z,18.40
2019-02-26T17:45:34.875Z,18.30
2019-02-26T17:48:03.474Z,18.10
2019-02-26T17:50:39.606Z,17.90
2019-02-26T17:53:08.389Z,17.70
2019-02-26T17:55:36.826Z,17.60
2019-02-26T17:58:07.631Z,17.40
2019-02-26T18:00:37.044Z,17.30
2019-02-26T18:03:07.237Z,17.20
2019-02-26T18:05:40.595Z,17.10
2019-02-26T18:08:06.190Z,17.00
2019-02-26T18:10:36.562Z,16.90
2019-02-26T18:13:05.334Z,16.80
2019-02-26T18:15:33.812Z,16.60
2019-02-26T18:18:02.533Z,16.50
2019-02-26T18:20:30.950Z,16.40
2019-02-26T18:23:00.744Z,16.30
2019-02-26T18:25:29.311Z,16.20
2019-02-26T18:27:57.744Z,16.10
2019-02-26T18:30:31.883Z,15.90
2019-02-26T18:33:00.295Z,15.80
2019-02-26T18:35:29.031Z,15.70
2019-02-26T18:37:57.463Z,15.70
2019-02-26T18:40:28.323Z,15.70
2019-02-26T18:42:56.661Z,15.70
2019-02-26T18:45:29.232Z,15.60
2019-02-26T18:47:57.684Z,15.50
2019-02-26T18:50:28.608Z,15.40
2019-02-26T18:52:58.310Z,15.30
2019-02-26T18:55:28.416Z,15.10
2019-02-26T18:57:57.610Z,15.00
2019-02-26T19:00:33.384Z,14.90
2019-02-26T19:03:02.246Z,14.80
2019-02-26T19:05:30.959Z,14.70
2019-02-26T19:07:59.389Z,14.70
2019-02-26T19:10:27.800Z,14.60
2019-02-26T19:12:56.237Z,14.50
2019-02-26T19:15:30.181Z,14.40
2019-02-26T19:18:01.983Z,14.40
2019-02-26T19:20:32.623Z,14.30
2019-02-26T19:23:02.134Z,14.30
2019-02-26T19:25:31.075Z,14.20
2019-02-26T19:27:59.759Z,14.10
2019-02-26T19:30:28.201Z,14.00
2019-02-26T19:32:56.663Z,13.90
2019-02-26T19:35:25.103Z,13.80
2019-02-26T19:38:01.001Z,13.80
2019-02-26T19:40:41.038Z,13.70
2019-02-26T19:43:09.467Z,13.60
2019-02-26T19:45:38.258Z,13.50
2019-02-26T19:48:06.958Z,13.40
2019-02-26T19:50:35.653Z,13.30
2019-02-26T19:53:04.557Z,13.20
2019-02-26T19:55:35.846Z,13.20
2019-02-26T19:58:06.662Z,13.10
2019-02-26T20:00:34.598Z,13.00
2019-02-26T20:03:05.471Z,13.00
2019-02-26T20:05:33.473Z,12.90
2019-02-26T20:08:04.892Z,12.70
2019-02-26T20:10:32.115Z,12.70
2019-02-26T20:13:01.602Z,12.70
2019-02-26T20:15:30.532Z,12.60
2019-02-26T20:18:00.358Z,12.60
2019-02-26T20:20:28.774Z,12.50
2019-02-26T20:22:57.185Z,12.50
2019-02-26T20:25:26.129Z,12.40
2019-02-26T20:27:55.563Z,12.30
2019-02-26T20:30:25.260Z,12.30
2019-02-26T20:32:53.714Z,12.20
2019-02-26T20:35:22.202Z,12.10
2019-02-26T20:37:50.636Z,12.00
2019-02-26T20:40:22.367Z,11.90
2019-02-26T20:42:50.864Z,11.90
2019-02-26T20:45:22.476Z,11.90
2019-02-26T20:47:50.970Z,11.80
2019-02-26T20:50:21.075Z,11.70
2019-02-26T20:52:50.014Z,11.60
2019-02-26T20:55:33.869Z,11.60
2019-02-26T20:58:02.677Z,11.60
2019-02-26T21:00:31.360Z,11.50
2019-02-26T21:02:59.798Z,11.40
2019-02-26T21:05:28.203Z,11.40
2019-02-26T21:07:58.781Z,11.30
2019-02-26T21:10:27.087Z,11.30
2019-02-26T21:12:55.503Z,11.20
2019-02-26T21:15:26.718Z,11.10
2019-02-26T21:17:57.719Z,11.10
2019-02-26T21:20:25.285Z,11.00
2019-02-26T21:22:54.942Z,10.90
2019-02-26T21:25:24.290Z,10.80
2019-02-26T21:27:52.723Z,10.70
2019-02-26T21:30:22.709Z,10.70
2019-02-26T21:32:51.425Z,10.60
2019-02-26T21:35:20.689Z,10.50
2019-02-26T21:37:49.828Z,10.40
2019-02-26T21:40:18.515Z,10.40
2019-02-26T21:42:46.950Z,10.40
2019-02-26T21:45:16.543Z,10.30
2019-02-26T21:47:45.005Z,10.30
2019-02-26T21:50:14.662Z,10.20
2019-02-26T21:52:43.078Z,10.20
2019-02-26T21:55:12.842Z,10.20
2019-02-26T21:57:41.349Z,10.10
2019-02-26T22:00:15.963Z,10.00
2019-02-26T22:02:44.550Z,10.00
2019-02-26T22:05:13.313Z,9.90
2019-02-26T22:07:42.082Z,9.80
2019-02-26T22:10:19.065Z,9.80
2019-02-26T22:12:47.782Z,9.70
2019-02-26T22:15:17.222Z,9.70
2019-02-26T22:17:45.707Z,9.60
2019-02-26T22:20:23.618Z,9.60
2019-02-26T22:22:46.877Z,9.60
2019-02-26T22:25:17.280Z,9.50
2019-02-26T22:27:46.331Z,9.40
2019-02-26T22:30:21.440Z,9.40
2019-02-26T22:32:47.305Z,9.30
2019-02-26T22:35:15.757Z,9.30
2019-02-26T22:37:44.174Z,9.20
2019-02-26T22:40:13.900Z,9.20
2019-02-26T22:42:42.320Z,9.10
2019-02-26T22:45:14.688Z,9.10
2019-02-26T22:47:44.494Z,9.00
2019-02-26T22:50:14.539Z,9.00
2019-02-26T22:52:42.945Z,8.90
2019-02-26T22:55:17.328Z,8.90
2019-02-26T22:57:46.025Z,8.90
2019-02-26T23:00:50.413Z,8.80
2019-02-26T23:03:19.303Z,8.80
2019-02-26T23:05:48.199Z,8.70
2019-02-26T23:08:16.640Z,8.70
2019-02-26T23:10:45.213Z,8.60
2019-02-26T23:13:13.856Z,8.50
2019-02-26T23:15:45.034Z,8.50
2019-02-26T23:18:12.894Z,8.40
2019-02-26T23:20:42.867Z,8.40
2019-02-26T23:23:11.874Z,8.40
2019-02-26T23:25:40.951Z,8.40
2019-02-26T23:28:09.666Z,8.30
2019-02-26T23:30:38.438Z,8.20
2019-02-26T23:33:07.686Z,8.20
2019-02-26T23:35:36.537Z,8.20
2019-02-26T23:38:08.009Z,8.20
2019-02-26T23:40:35.593Z,8.10
2019-02-26T23:43:04.422Z,8.10
2019-02-26T23:45:32.921Z,8.10
2019-02-26T23:48:01.616Z,8.00
2019-02-26T23:50:30.034Z,8.00
2019-02-26T23:53:00.897Z,8.00
2019-02-26T23:55:28.677Z,7.90
2019-02-26T23:57:57.986Z,7.90
